Time;durP1;ratioP1;P1;durP2;ratioP2;P2;SDS_P1;SDS_P2;PMS_P1;PMS_P2;Temp;Humidity;BMP_temperature;BMP_pressure;BME280_temperature;BME280_humidity;BME280_pressure;Samples;Min_cycle;Max_cycle;Signal;HPM_P1;HPM_P2
2022/01/20 00:03:23;;;;;;;;;21.00;20.00;;;;;8.42;68.79;102381.50;5081871;27;45713;-84
2022/01/20 00:09:32;;;;;;;;;18.00;17.00;;;;;8.26;68.98;102387.63;5080217;28;45417;-77
2022/01/20 00:23:11;;;;;;;;;18.00;16.67;;;;;7.95;69.61;102375.16;5099863;27;45516;-78
2022/01/20 00:25:49;;;;;;;;;16.33;16.33;;;;;7.95;69.70;102396.16;5099873;27;45523;-81
2022/01/20 00:26:27;;;;;;;;;24.33;17.67;;;;;7.57;69.88;102319.72;5103269;27;45331;-77
2022/01/20 00:28:57;;;;;;;;;26.33;19.67;;;;;7.78;69.14;102360.44;5099748;27;45366;-76
2022/01/20 00:31:35;;;;;;;;;21.67;16.67;;;;;7.94;69.83;102383.50;5081282;27;47114;-77
2022/01/20 00:35:03;;;;;;;;;28.00;20.33;;;;;7.92;69.77;102391.84;5096614;27;45433;-77
2022/01/20 00:39:37;;;;;;;;;20.67;19.00;;;;;7.81;69.99;102369.34;5099910;27;45823;-82
2022/01/20 00:42:03;;;;;;;;;25.67;19.00;;;;;7.76;69.12;102369.78;5083881;27;47046;-77
2022/01/20 00:44:28;;;;;;;;;23.67;20.00;;;;;7.74;69.37;102371.81;5080660;27;45366;-77
2022/01/20 00:46:55;;;;;;;;;24.33;17.67;;;;;7.64;69.77;102360.06;5099811;27;45453;-77
2022/01/20 00:49:22;;;;;;;;;17.00;15.33;;;;;7.67;69.81;102370.69;5098332;27;45406;-76
2022/01/20 00:51:47;;;;;;;;;23.67;18.67;;;;;7.64;69.66;102376.47;5079561;27;47141;-77
2022/01/20 00:54:13;;;;;;;;;20.67;18.00;;;;;7.64;69.36;102376.47;5099004;27;45735;-77
2022/01/20 00:56:38;;;;;;;;;17.33;15.00;;;;;7.60;69.85;102374.03;5099515;27;45994;-77
2022/01/20 00:59:04;;;;;;;;;19.33;15.33;;;;;7.59;70.09;102374.19;5098750;27;45780;-81
2022/01/20 01:01:29;;;;;;;;;20.67;18.00;;;;;7.52;69.20;102362.13;5102884;27;45397;-77
2022/01/20 01:03:54;;;;;;;;;16.33;16.33;;;;;7.53;69.97;102367.44;5088225;27;45481;-77
2022/01/20 01:08:52;;;;;;;;;17.67;16.67;;;;;7.45;70.07;102386.41;5082710;28;45419;-82
2022/01/20 01:11:19;;;;;;;;;23.00;17.33;;;;;7.35;69.57;102377.38;5082121;28;46276;-81
2022/01/20 01:13:44;;;;;;;;;15.33;14.33;;;;;7.38;69.19;102385.28;5070057;28;45303;-77
2022/01/20 01:16:12;;;;;;;;;20.33;15.33;;;;;7.32;69.25;102384.00;5061398;28;45996;-78
2022/01/20 01:23:54;;;;;;;;;16.67;15.00;;;;;7.30;70.16;102417.91;5081950;28;45358;-82
2022/01/20 01:26:22;;;;;;;;;18.00;15.67;;;;;7.22;69.75;102414.03;5061692;28;45786;-82
2022/01/20 01:28:49;;;;;;;;;17.33;14.67;;;;;7.23;70.03;102423.94;5081126;28;45757;-81
2022/01/20 01:33:51;;;;;;;;;17.33;14.67;;;;;7.17;69.79;102424.53;5080339;28;45290;-81
2022/01/20 01:36:20;;;;;;;;;19.67;18.67;;;;;7.11;70.17;102425.13;5063637;28;45446;-81
2022/01/20 01:38:47;;;;;;;;;15.00;12.00;;;;;7.08;69.68;102436.31;5081305;28;45522;-77
2022/01/20 01:41:16;;;;;;;;;14.00;12.33;;;;;6.99;69.79;102421.69;5077535;28;46371;-75
2022/01/20 01:43:49;;;;;;;;;15.67;14.67;;;;;7.00;69.58;102430.72;5077396;28;45439;-76
2022/01/20 01:46:15;;;;;;;;;17.67;13.33;;;;;6.97;69.35;102429.13;5060015;28;45506;-77
2022/01/20 01:48:43;;;;;;;;;17.33;14.33;;;;;6.98;69.27;102435.47;5076609;28;45480;-75
2022/01/20 01:51:09;;;;;;;;;15.00;13.00;;;;;6.98;69.61;102438.19;5079817;28;45475;-81
2022/01/20 01:53:36;;;;;;;;;14.33;13.00;;;;;6.95;69.54;102452.97;5078824;28;45465;-74
2022/01/20 01:56:03;;;;;;;;;14.00;12.00;;;;;6.91;69.82;102458.84;5057437;28;45871;-76
2022/01/20 01:58:29;;;;;;;;;14.00;12.00;;;;;6.86;70.39;102462.84;5053802;28;45501;-77
2022/01/20 02:00:55;;;;;;;;;13.67;9.00;;;;;6.81;69.53;102465.16;5076961;28;45430;-75
2022/01/20 02:03:21;;;;;;;;;12.00;11.00;;;;;6.82;69.45;102483.22;5078565;28;45738;-77
2022/01/20 02:06:02;;;;;;;;;14.00;12.00;;;;;6.78;69.86;102476.34;5059008;28;45379;-76
2022/01/20 02:19:12;;;;;;;;;15.33;13.33;;;;;6.65;69.80;102482.06;5097042;27;45471;-81
2022/01/20 02:21:51;;;;;;;;;10.00;9.00;;;;;6.63;69.48;102470.44;5084339;27;46667;-80
2022/01/20 02:24:17;;;;;;;;;13.00;12.33;;;;;6.59;69.19;102476.31;5080156;27;45477;-80
2022/01/20 02:26:43;;;;;;;;;15.00;11.33;;;;;6.59;68.90;102479.03;5081157;28;45417;-80
2022/01/20 02:29:09;;;;;;;;;11.33;10.00;;;;;6.57;68.82;102481.03;5061930;28;45609;-80
2022/01/20 02:31:35;;;;;;;;;12.00;10.67;;;;;6.49;69.19;102474.41;5092887;27;45883;-75
2022/01/20 02:34:01;;;;;;;;;10.33;10.33;;;;;6.45;69.14;102483.00;5102154;27;45377;-83
2022/01/20 02:36:28;;;;;;;;;11.67;10.00;;;;;6.43;68.49;102474.13;5088994;27;45405;-76
2022/01/20 02:38:58;;;;;;;;;12.00;9.67;;;;;6.50;68.87;102491.63;5079011;28;45296;-80
2022/01/20 02:46:52;;;;;;;;;11.33;9.00;;;;;6.41;68.60;102468.81;5078721;27;45538;-80
2022/01/20 02:49:19;;;;;;;;;9.00;8.67;;;;;6.39;68.02;102462.59;5093532;27;46297;-76
2022/01/20 02:51:51;;;;;;;;;11.00;9.00;;;;;6.36;68.15;102461.03;5061150;28;47646;-76
2022/01/20 02:54:18;;;;;;;;;12.33;7.33;;;;;6.34;67.94;102460.31;5094709;27;45512;-79
2022/01/20 02:56:44;;;;;;;;;10.33;8.67;;;;;6.35;67.99;102453.88;5080805;27;45750;-77
2022/01/20 02:59:10;;;;;;;;;11.67;8.67;;;;;6.36;68.27;102455.59;5097192;27;45401;-76
2022/01/20 03:01:35;;;;;;;;;13.00;10.00;;;;;6.38;67.74;102455.47;5098337;27;46177;-80
2022/01/20 03:04:02;;;;;;;;;12.00;9.00;;;;;6.35;67.17;102463.91;5100094;27;45406;-79
2022/01/20 03:06:28;;;;;;;;;10.00;8.00;;;;;6.23;67.73;102449.53;5100203;27;45520;-80
2022/01/20 03:08:53;;;;;;;;;11.33;10.33;;;;;6.25;67.39;102446.66;5099876;27;45389;-76
2022/01/20 03:11:19;;;;;;;;;9.33;7.33;;;;;6.32;66.89;102461.47;5097819;27;45909;-80
2022/01/20 03:13:44;;;;;;;;;8.00;8.00;;;;;6.32;67.66;102477.81;5099074;27;45452;-81
2022/01/20 03:16:10;;;;;;;;;8.33;6.00;;;;;6.25;67.49;102482.09;5080673;27;46012;-77
2022/01/20 03:18:35;;;;;;;;;12.00;10.00;;;;;6.26;67.90;102483.81;5097148;27;45472;-75
2022/01/20 03:21:01;;;;;;;;;10.00;8.33;;;;;6.25;67.44;102488.38;5096634;27;45853;-76
2022/01/20 03:23:26;;;;;;;;;15.33;12.00;;;;;6.22;67.54;102474.19;5079363;28;45436;-81
2022/01/20 03:25:52;;;;;;;;;16.33;13.00;;;;;6.15;67.12;102477.47;5079772;28;45435;-80
2022/01/20 03:28:17;;;;;;;;;10.67;8.67;;;;;6.21;67.39;102491.53;5059109;28;46985;-74
2022/01/20 03:30:43;;;;;;;;;15.67;11.67;;;;;6.19;67.29;102489.78;5076138;28;46338;-76
2022/01/20 03:33:08;;;;;;;;;13.67;12.33;;;;;6.21;67.48;102491.53;5075357;28;45398;-77
2022/01/20 03:35:34;;;;;;;;;11.33;11.33;;;;;6.18;67.47;102496.25;5076023;28;45603;-77
2022/01/20 03:38:00;;;;;;;;;18.33;13.67;;;;;6.16;67.33;102495.50;5076204;28;45440;-76
2022/01/20 03:40:25;;;;;;;;;10.67;10.33;;;;;6.14;67.47;102494.78;5094594;27;46042;-75
2022/01/20 03:42:51;;;;;;;;;15.33;13.00;;;;;6.14;67.90;102488.50;5101972;27;45298;-79
2022/01/20 03:45:16;;;;;;;;;15.67;12.00;;;;;6.02;67.76;102474.09;5103362;27;45552;-79
2022/01/20 03:47:42;;;;;;;;;14.67;14.67;;;;;6.10;68.13;102497.94;5083907;27;45955;-78
2022/01/20 03:50:59;;;;;;;;;17.00;13.67;;;;;6.09;68.19;102498.91;5101366;27;46262;-76
2022/01/20 03:52:54;;;;;;;;;17.33;13.67;;;;;6.05;67.64;102511.97;5101364;27;45485;-79
2022/01/20 03:55:19;;;;;;;;;12.00;10.00;;;;;6.03;68.26;102505.78;5099946;27;45484;-75
2022/01/20 03:57:45;;;;;;;;;16.33;12.33;;;;;6.00;67.84;102514.22;5099711;27;45946;-79
2022/01/20 04:00:11;;;;;;;;;18.00;12.67;;;;;5.97;68.63;102511.75;5099364;27;46362;-76
2022/01/20 04:02:36;;;;;;;;;17.33;15.67;;;;;5.93;68.33;102511.16;5099140;27;45463;-75
2022/01/20 04:05:02;;;;;;;;;16.00;12.33;;;;;5.94;68.17;102518.31;5081973;27;45505;-77
2022/01/20 04:07:28;;;;;;;;;16.67;15.00;;;;;5.90;68.54;102511.41;5082231;27;45382;-77
2022/01/20 04:09:53;;;;;;;;;12.67;11.00;;;;;5.86;68.21;102517.28;5102813;27;45643;-79
2022/01/20 04:12:19;;;;;;;;;18.33;13.33;;;;;5.79;68.16;102506.91;5101027;27;45385;-73
2022/01/20 04:14:48;;;;;;;;;15.33;15.00;;;;;5.87;68.47;102522.59;5096641;27;45819;-73
2022/01/20 04:17:18;;;;;;;;;16.67;14.33;;;;;5.88;68.49;102523.44;5096272;27;45404;-72
2022/01/20 04:19:45;;;;;;;;;16.67;12.33;;;;;5.83;68.57;102521.97;5096090;27;46081;-72
2022/01/20 04:22:11;;;;;;;;;7.00;7.00;;;;;5.81;68.72;102529.41;5078296;27;45477;-76
2022/01/20 04:24:37;;;;;;;;;18.67;13.67;;;;;5.76;68.44;102523.53;5097547;27;45785;-72
2022/01/20 04:27:04;;;;;;;;;19.33;13.33;;;;;5.78;67.95;102529.69;5080563;27;47365;-77
2022/01/20 04:29:30;;;;;;;;;13.67;11.33;;;;;5.77;68.27;102532.53;5082385;27;47393;-78
2022/01/20 04:31:55;;;;;;;;;15.33;11.00;;;;;5.69;67.94;102522.31;5098445;27;45513;-73
2022/01/20 04:34:22;;;;;;;;;18.67;13.00;;;;;5.75;68.26;102535.41;5098575;27;45535;-76
2022/01/20 04:36:50;;;;;;;;;12.33;10.33;;;;;5.64;68.73;102516.41;5098854;27;45881;-75
2022/01/20 04:39:23;;;;;;;;;16.00;11.67;;;;;5.70;68.72;102536.78;5098192;27;46168;-75
2022/01/20 04:41:51;;;;;;;;;15.67;14.67;;;;;5.67;69.09;102543.34;5080856;27;45736;-79
2022/01/20 04:44:35;;;;;;;;;12.67;10.00;;;;;5.71;68.56;102541.25;5101979;27;45714;-80
2022/01/20 04:47:16;;;;;;;;;15.33;11.00;;;;;5.72;68.72;102556.56;5101372;27;45411;-79
2022/01/20 04:57:54;;;;;;;;;18.33;13.33;;;;;5.67;68.21;102562.41;5098226;27;45497;-77
2022/01/20 05:00:20;;;;;;;;;17.00;13.67;;;;;5.54;68.41;102537.22;5098025;27;46213;-77
2022/01/20 05:02:45;;;;;;;;;10.00;9.67;;;;;5.65;67.95;102559.81;5098076;27;45466;-78
2022/01/20 05:05:11;;;;;;;;;14.00;11.00;;;;;5.63;68.27;102548.22;5081356;27;45488;-78
2022/01/20 05:07:37;;;;;;;;;16.00;12.33;;;;;5.61;68.35;102546.59;5101836;27;45480;-79
2022/01/20 05:10:07;;;;;;;;;16.00;12.00;;;;;5.61;68.12;102544.75;5078341;27;47058;-74
2022/01/20 05:13:03;;;;;;;;;10.33;9.67;;;;;5.59;67.97;102545.88;5096061;27;45429;-74
2022/01/20 05:15:24;;;;;;;;;17.33;12.67;;;;;5.58;67.87;102535.97;5096404;27;45924;-75
2022/01/20 05:17:51;;;;;;;;;16.00;12.00;;;;;5.57;67.75;102545.13;5078532;27;46097;-76
2022/01/20 05:20:17;;;;;;;;;11.00;8.67;;;;;5.52;67.95;102545.53;5097461;27;45500;-75
2022/01/20 05:22:43;;;;;;;;;13.00;11.00;;;;;5.56;67.65;102557.88;5078929;27;45808;-74
2022/01/20 05:25:09;;;;;;;;;11.00;8.67;;;;;5.52;67.20;102556.41;5097534;27;45505;-76
2022/01/20 05:27:34;;;;;;;;;16.67;12.00;;;;;5.52;67.87;102545.53;5098797;27;45639;-75
2022/01/20 05:30:00;;;;;;;;;11.00;10.00;;;;;5.48;68.31;102547.66;5100511;27;45451;-79
2022/01/20 05:32:26;;;;;;;;;8.67;8.67;;;;;5.46;68.14;102546.94;5101704;27;45472;-80
2022/01/20 05:34:52;;;;;;;;;16.67;11.33;;;;;5.46;68.17;102563.25;5099849;27;45726;-75
2022/01/20 05:37:18;;;;;;;;;16.00;10.00;;;;;5.37;68.71;102553.13;5097949;27;45776;-76
2022/01/20 05:39:44;;;;;;;;;10.67;10.33;;;;;5.45;68.26;102566.97;5078325;27;47893;-77
2022/01/20 05:42:09;;;;;;;;;10.67;10.00;;;;;5.40;68.44;102562.91;5099488;27;45528;-76
2022/01/20 05:44:35;;;;;;;;;13.33;11.67;;;;;5.43;68.88;102568.97;5080492;27;45366;-79
2022/01/20 05:47:09;;;;;;;;;12.67;10.00;;;;;5.43;68.83;102574.41;5083309;27;46715;-80
2022/01/20 05:49:35;;;;;;;;;12.00;10.00;;;;;5.36;68.40;102575.91;5097081;27;45436;-76
2022/01/20 05:52:01;;;;;;;;;16.33;11.00;;;;;5.38;68.59;102584.81;5081316;27;45343;-77
2022/01/20 05:54:27;;;;;;;;;15.00;12.67;;;;;5.31;68.32;102569.97;5059399;28;45788;-75
2022/01/20 05:56:53;;;;;;;;;10.33;10.33;;;;;5.30;69.01;102576.44;5077361;28;45951;-77
2022/01/20 05:59:19;;;;;;;;;12.33;11.67;;;;;5.28;68.97;102582.00;5096184;27;46128;-73
2022/01/20 06:01:52;;;;;;;;;13.67;9.67;;;;;5.37;68.10;102591.22;5086257;27;45963;-76
2022/01/20 06:04:17;;;;;;;;;12.00;10.33;;;;;5.31;68.04;102583.59;5109136;27;45841;-75
2022/01/20 06:06:44;;;;;;;;;12.67;9.00;;;;;5.34;68.63;102594.22;5087023;27;45688;-74
2022/01/20 06:09:35;;;;;;;;;10.00;10.00;;;;;5.34;68.19;102602.38;5112001;27;46023;-82
2022/01/20 06:12:02;;;;;;;;;16.67;11.67;;;;;5.33;67.93;102599.78;5111512;27;45425;-81
2022/01/20 06:14:33;;;;;;;;;13.33;10.00;;;;;5.16;69.14;102576.72;5094050;27;45491;-81
2022/01/20 06:16:59;;;;;;;;;10.00;8.67;;;;;5.31;68.08;102597.19;5100866;27;45948;-81
2022/01/20 06:19:27;;;;;;;;;14.33;9.00;;;;;5.29;68.18;102604.63;5105058;27;46038;-82
2022/01/20 06:21:55;;;;;;;;;15.00;10.00;;;;;5.28;68.78;102597.44;5115797;27;45379;-78
2022/01/20 06:24:20;;;;;;;;;10.00;5.00;;;;;5.30;68.50;102611.81;5089769;27;45746;-82
2022/01/20 06:26:46;;;;;;;;;11.33;10.33;;;;;5.28;68.14;102609.22;5114488;27;45483;-81
2022/01/20 06:29:21;;;;;;;;;12.67;10.67;;;;;5.16;68.17;102598.47;5090658;27;46885;-83
2022/01/20 06:31:47;;;;;;;;;12.33;10.67;;;;;5.24;67.81;102606.84;5092055;27;45401;-82
2022/01/20 06:34:13;;;;;;;;;9.00;8.00;;;;;5.24;68.44;102615.91;5097612;27;45443;-76
2022/01/20 06:36:38;;;;;;;;;12.33;9.00;;;;;5.23;68.17;102610.59;5071028;27;45580;-74
2022/01/20 06:39:04;;;;;;;;;18.25;11.25;;;;;5.25;68.14;102608.59;5083873;27;45969;-78
2022/01/20 06:41:37;;;;;;;;;4.33;3.00;;;;;5.25;67.93;102619.47;5083050;27;45399;-81
2022/01/20 06:44:03;;;;;;;;;15.67;11.67;;;;;5.24;67.35;102623.16;5100956;27;45488;-73
2022/01/20 06:46:29;;;;;;;;;18.33;16.00;;;;;5.23;66.73;102616.88;5095662;27;45963;-72
2022/01/20 06:49:03;;;;;;;;;18.67;15.00;;;;;5.16;67.75;102617.50;5100787;27;45516;-78
2022/01/20 06:51:32;;;;;;;;;12.33;11.00;;;;;5.23;67.40;102635.06;5099743;27;45694;-79
2022/01/20 06:53:58;;;;;;;;;11.33;10.67;;;;;5.22;67.14;102641.47;5086238;27;45422;-79
2022/01/20 06:56:23;;;;;;;;;19.00;12.67;;;;;5.22;68.04;102649.66;5087393;27;46491;-81
2022/01/20 06:58:49;;;;;;;;;11.33;9.00;;;;;5.24;66.68;102651.25;5084716;27;47159;-77
2022/01/20 07:01:16;;;;;;;;;16.33;14.67;;;;;5.25;66.61;102655.69;5086627;27;46092;-80
2022/01/20 07:03:41;;;;;;;;;18.33;11.33;;;;;5.23;66.54;102654.09;5083029;27;45359;-81
2022/01/20 07:06:07;;;;;;;;;18.33;12.33;;;;;5.26;67.08;102657.41;5103391;27;45404;-79
2022/01/20 07:08:33;;;;;;;;;16.00;12.33;;;;;5.28;66.90;102665.47;5074825;28;47254;-78
2022/01/20 07:10:58;;;;;;;;;12.33;10.33;;;;;5.27;66.50;102666.47;5092173;27;45400;-75
2022/01/20 07:13:24;;;;;;;;;16.67;10.67;;;;;5.30;65.88;102679.81;5096441;27;45935;-79
2022/01/20 07:15:49;;;;;;;;;15.00;10.67;;;;;5.32;66.86;102688.69;5101713;27;45548;-80
2022/01/20 07:18:15;;;;;;;;;15.33;10.00;;;;;5.33;66.10;102701.31;5097767;27;46079;-77
2022/01/20 07:20:40;;;;;;;;;13.33;8.67;;;;;5.34;66.84;102700.31;5096739;27;45397;-78
2022/01/20 07:23:06;;;;;;;;;9.00;9.00;;;;;5.36;66.39;102703.78;5080361;27;45747;-78
2022/01/20 07:25:32;;;;;;;;;15.00;8.00;;;;;5.42;66.76;102697.84;5064492;27;46052;-76
2022/01/20 07:27:57;;;;;;;;;10.00;9.00;;;;;5.47;66.04;102690.16;5095790;27;45565;-81
2022/01/20 07:30:22;;;;;;;;;11.33;6.67;;;;;5.58;66.41;102702.00;5095499;27;45412;-77
2022/01/20 07:32:48;;;;;;;;;10.33;7.00;;;;;5.64;66.01;102696.03;5076772;27;45849;-77
2022/01/20 07:35:13;;;;;;;;;5.67;5.67;;;;;5.75;65.13;102695.13;5076794;28;45417;-80
2022/01/20 07:37:39;;;;;;;;;12.33;10.00;;;;;5.84;65.98;102714.31;5087887;27;46560;-77
2022/01/20 07:40:05;;;;;;;;;8.67;8.00;;;;;5.93;65.30;102706.38;5089454;27;45595;-76
2022/01/20 07:42:31;;;;;;;;;9.67;9.00;;;;;5.98;64.65;102701.41;5059947;27;45444;-76
2022/01/20 07:44:56;;;;;;;;;10.67;8.00;;;;;6.10;64.76;102700.34;5107572;27;45488;-76
2022/01/20 07:47:21;;;;;;;;;8.67;6.33;;;;;6.21;64.42;102701.31;5116812;27;46914;-77
2022/01/20 07:49:47;;;;;;;;;10.00;5.67;;;;;6.31;64.61;102700.38;5074453;27;45718;-77
2022/01/20 07:52:14;;;;;;;;;7.67;5.33;;;;;6.40;64.18;102701.44;5082483;27;45466;-75
2022/01/20 07:54:39;;;;;;;;;21.00;13.33;;;;;6.51;63.33;102701.38;5077891;27;47060;-76
2022/01/20 07:57:07;;;;;;;;;9.67;7.33;;;;;6.61;64.32;102706.88;5096415;27;46405;-76
2022/01/20 07:59:32;;;;;;;;;14.33;10.33;;;;;6.71;64.05;102702.34;5081979;27;45338;-77
2022/01/20 08:01:58;;;;;;;;;10.00;6.33;;;;;6.81;63.22;102691.50;5107886;27;45423;-79
2022/01/20 08:04:23;;;;;;;;;8.33;7.33;;;;;6.93;63.19;102696.84;5096444;27;45861;-77
2022/01/20 08:06:49;;;;;;;;;13.33;7.33;;;;;7.07;63.47;102710.13;5080605;27;45365;-77
2022/01/20 08:09:15;;;;;;;;;16.00;15.67;;;;;7.18;63.00;102709.16;5069451;27;45589;-76
2022/01/20 08:11:41;;;;;;;;;24.33;20.67;;;;;7.15;62.59;102687.63;5078894;27;45720;-80
2022/01/20 08:14:06;;;;;;;;;10.00;8.67;;;;;7.24;62.60;102679.47;5090462;27;46297;-79
2022/01/20 08:16:32;;;;;;;;;13.00;11.33;;;;;7.43;61.73;102703.22;5058287;28;46498;-79
2022/01/20 08:18:58;;;;;;;;;11.33;8.67;;;;;7.52;61.82;102704.25;5061416;27;45448;-79
2022/01/20 08:21:23;;;;;;;;;17.00;12.33;;;;;7.58;61.83;102703.66;5038911;28;45477;-80
2022/01/20 08:23:49;;;;;;;;;13.00;11.67;;;;;7.66;61.92;102707.56;5072195;27;45943;-78
2022/01/20 08:26:14;;;;;;;;;11.67;8.00;;;;;7.73;61.42;102697.81;5100363;27;46194;-77
2022/01/20 08:28:40;;;;;;;;;11.67;8.33;;;;;7.76;60.64;102708.44;5079801;27;45424;-76
2022/01/20 08:31:06;;;;;;;;;13.67;10.67;;;;;7.76;60.37;102713.91;5083215;27;45722;-78
2022/01/20 08:33:31;;;;;;;;;17.00;12.67;;;;;7.80;60.86;102707.19;5099800;27;45735;-76
2022/01/20 08:35:57;;;;;;;;;12.67;9.33;;;;;7.84;60.08;102700.41;5099173;27;45529;-76
2022/01/20 08:38:22;;;;;;;;;12.67;11.33;;;;;7.88;60.23;102701.84;5101322;27;45694;-77
2022/01/20 08:40:48;;;;;;;;;15.33;15.00;;;;;7.93;59.72;102707.75;5085341;27;45320;-79
2022/01/20 08:43:14;;;;;;;;;12.67;9.67;;;;;7.98;59.31;102709.19;5080040;28;45375;-77
2022/01/20 08:45:43;;;;;;;;;10.33;10.00;;;;;8.02;59.83;102707.88;5080505;28;46274;-78
2022/01/20 08:48:12;;;;;;;;;15.67;12.33;;;;;8.02;59.97;102699.69;5046272;28;45352;-76
2022/01/20 08:50:38;;;;;;;;;14.00;11.33;;;;;8.15;59.50;102730.34;5080993;27;45711;-76
2022/01/20 08:53:04;;;;;;;;;16.00;10.00;;;;;8.18;59.50;102712.78;5079727;27;45497;-77
2022/01/20 08:55:29;;;;;;;;;9.33;9.33;;;;;8.28;59.25;102714.50;5078953;28;45377;-76
2022/01/20 08:57:57;;;;;;;;;14.00;12.33;;;;;8.35;59.41;102717.50;5080268;27;45436;-77
2022/01/20 09:00:26;;;;;;;;;14.33;12.33;;;;;8.42;59.15;102706.88;5078514;28;45645;-76
2022/01/20 09:02:52;;;;;;;;;13.00;12.67;;;;;8.60;58.44;102715.22;5078804;27;45416;-78
2022/01/20 09:05:17;;;;;;;;;16.33;12.67;;;;;8.72;58.50;102722.22;5068667;28;46655;-75
2022/01/20 09:07:43;;;;;;;;;9.33;8.33;;;;;8.86;58.90;102718.16;5086557;27;45452;-77
2022/01/20 09:10:10;;;;;;;;;13.67;10.00;;;;;9.01;58.24;102716.69;5091021;27;45524;-77
2022/01/20 09:17:50;;;;;;;;;25.67;18.67;;;;;9.28;57.46;102723.19;5093457;27;45838;-77
2022/01/20 09:20:16;;;;;;;;;17.00;15.00;;;;;9.34;56.71;102719.84;5078576;28;45540;-76
2022/01/20 09:22:41;;;;;;;;;17.00;17.00;;;;;9.37;56.80;102724.13;5060127;28;45562;-77
2022/01/20 09:25:08;;;;;;;;;23.00;17.00;;;;;9.58;56.29;102744.94;5065349;27;45966;-77
2022/01/20 09:27:34;;;;;;;;;23.33;18.00;;;;;9.62;56.75;102741.72;5073865;28;45821;-78
2022/01/20 09:30:04;;;;;;;;;18.00;14.67;;;;;9.77;56.09;102752.19;5060086;28;45405;-76
2022/01/20 09:32:32;;;;;;;;;18.00;15.00;;;;;9.88;55.74;102755.56;5067174;28;45507;-77
2022/01/20 09:34:57;;;;;;;;;15.00;13.67;;;;;9.91;56.48;102757.13;5039984;28;47234;-75
2022/01/20 09:37:23;;;;;;;;;17.33;16.00;;;;;10.05;56.68;102764.81;5073815;28;45524;-77
2022/01/20 09:39:49;;;;;;;;;18.00;16.33;;;;;10.19;56.33;102765.28;5059111;27;45359;-76
2022/01/20 09:42:16;;;;;;;;;21.67;19.00;;;;;10.37;55.90;102766.19;5073721;27;45786;-75
2022/01/20 09:44:44;;;;;;;;;20.00;17.00;;;;;10.50;55.39;102763.03;5056290;28;46313;-75
2022/01/20 09:47:10;;;;;;;;;16.33;14.00;;;;;10.61;55.03;102764.66;5057357;28;45497;-77
2022/01/20 09:49:37;;;;;;;;;17.00;16.00;;;;;10.83;54.08;102748.69;5075687;28;45586;-76
2022/01/20 09:52:03;;;;;;;;;20.00;16.33;;;;;11.02;54.18;102751.22;5091583;27;45710;-77
2022/01/20 09:54:28;;;;;;;;;16.00;13.67;;;;;11.23;53.57;102753.56;5064949;28;46221;-77
2022/01/20 09:56:55;;;;;;;;;20.00;16.00;;;;;11.49;53.27;102752.66;5076990;27;45695;-74
2022/01/20 09:59:21;;;;;;;;;19.00;16.00;;;;;11.67;53.19;102747.06;5056779;28;45517;-76
2022/01/20 10:01:50;;;;;;;;;22.00;19.67;;;;;11.88;52.32;102752.09;5080828;27;45278;-76
2022/01/20 10:04:26;;;;;;;;;21.33;17.33;;;;;12.20;51.67;102764.22;5067138;27;46265;-76
2022/01/20 10:06:58;;;;;;;;;17.00;14.00;;;;;12.36;51.04;102753.25;5075368;27;45349;-74
2022/01/20 10:09:37;;;;;;;;;20.67;15.33;;;;;12.44;51.21;102768.88;5073304;28;45477;-75
2022/01/20 10:12:04;;;;;;;;;18.67;16.00;;;;;12.60;51.13;102764.41;5054986;27;46224;-76
2022/01/20 10:14:48;;;;;;;;;18.67;15.67;;;;;12.68;51.18;102778.19;5089837;27;45445;-79
2022/01/20 10:17:25;;;;;;;;;20.33;15.00;;;;;12.84;49.87;102780.03;5097178;27;45574;-74
2022/01/20 10:19:56;;;;;;;;;15.00;15.00;;;;;12.99;49.41;102783.78;5097720;27;45875;-77
2022/01/20 10:22:23;;;;;;;;;21.00;14.33;;;;;13.05;49.05;102783.13;5096976;27;45721;-76
2022/01/20 10:24:59;;;;;;;;;16.67;16.00;;;;;13.04;49.31;102792.41;5088240;27;45553;-77
2022/01/20 10:27:24;;;;;;;;;18.67;17.33;;;;;13.14;50.50;102794.09;5074870;27;45485;-76
2022/01/20 10:30:04;;;;;;;;;19.33;16.33;;;;;13.24;49.97;102797.53;5073624;27;45572;-77
2022/01/20 10:32:46;;;;;;;;;24.67;16.00;;;;;13.33;49.77;102793.72;5084068;27;45608;-74
2022/01/20 10:35:13;;;;;;;;;14.67;10.67;;;;;13.49;49.21;102801.09;5088596;27;46477;-74
2022/01/20 10:37:41;;;;;;;;;15.67;13.00;;;;;13.60;48.39;102799.84;5076297;27;45448;-74
2022/01/20 10:40:13;;;;;;;;;14.67;12.33;;;;;13.68;48.14;102807.22;5092533;27;45732;-72
2022/01/20 10:42:44;;;;;;;;;52.50;41.25;;;;;13.71;48.45;102801.34;5083270;27;45647;-75
2022/01/20 10:45:22;;;;;;;;;42.00;34.50;;;;;13.76;48.28;102801.69;5084518;27;45828;-73
2022/01/20 10:47:50;;;;;;;;;13.00;13.00;;;;;13.81;46.87;102798.38;5087465;27;45756;-76
2022/01/20 10:50:21;;;;;;;;;21.33;17.67;;;;;13.89;47.97;102812.13;5089147;27;45366;-76
2022/01/20 10:52:47;;;;;;;;;16.67;12.00;;;;;13.84;47.77;102809.06;5064944;27;45966;-75
2022/01/20 10:55:34;;;;;;;;;18.00;14.00;;;;;13.69;48.09;102806.19;5089481;27;46943;-74
2022/01/20 10:58:20;;;;;;;;;14.00;11.67;;;;;13.55;47.84;102811.41;5077515;27;45694;-72
2022/01/20 11:00:50;;;;;;;;;15.00;12.67;;;;;13.52;48.63;102806.25;5070356;27;45497;-73
2022/01/20 11:03:16;;;;;;;;;14.00;11.00;;;;;13.40;48.89;102808.53;5079191;27;45442;-74
2022/01/20 11:05:50;;;;;;;;;13.00;10.67;;;;;13.47;49.41;102814.19;5090293;27;45515;-75
2022/01/20 11:08:17;;;;;;;;;12.00;11.00;;;;;13.55;48.66;102805.06;5086917;27;45686;-74
2022/01/20 11:10:43;;;;;;;;;18.00;15.33;;;;;13.74;49.60;102809.25;5084497;27;45466;-74
2022/01/20 11:13:10;;;;;;;;;11.67;8.33;;;;;14.10;48.81;102805.97;5091842;27;45861;-75
2022/01/20 11:15:36;;;;;;;;;10.67;9.67;;;;;14.44;47.77;102805.56;5087102;27;45463;-74
2022/01/20 11:18:03;;;;;;;;;14.67;12.67;;;;;14.64;46.72;102799.56;5076597;27;45951;-78
2022/01/20 11:20:32;;;;;;;;;12.00;9.33;;;;;14.74;45.89;102804.84;5089997;27;45482;-76
2022/01/20 11:23:02;;;;;;;;;10.67;8.67;;;;;14.69;45.77;102797.13;5069972;27;45899;-77
2022/01/20 11:25:35;;;;;;;;;13.33;12.00;;;;;14.70;46.01;102793.34;5091205;27;45511;-80
2022/01/20 11:28:04;;;;;;;;;11.67;10.00;;;;;14.63;45.99;102797.88;5075603;27;46389;-79
2022/01/20 11:30:32;;;;;;;;;11.67;11.67;;;;;14.58;46.58;102790.13;5074990;27;46607;-79
2022/01/20 11:33:04;;;;;;;;;15.33;13.33;;;;;14.46;46.35;102791.56;5095598;27;45521;-74
2022/01/20 11:35:40;;;;;;;;;12.67;11.67;;;;;14.32;46.22;102789.63;5074054;27;47227;-74
2022/01/20 11:38:07;;;;;;;;;35.33;27.67;;;;;14.25;46.66;102797.78;5076507;27;45736;-74
2022/01/20 11:40:33;;;;;;;;;12.67;10.33;;;;;14.16;45.22;102794.22;5086470;27;46124;-74
2022/01/20 11:43:07;;;;;;;;;8.00;8.00;;;;;14.22;46.20;102796.25;5091387;27;45750;-79
2022/01/20 11:45:37;;;;;;;;;11.67;9.67;;;;;14.34;45.30;102799.47;5102817;27;46111;-78
2022/01/20 11:48:12;;;;;;;;;14.00;13.00;;;;;14.44;46.86;102804.72;5100400;27;45417;-74
2022/01/20 11:50:38;;;;;;;;;10.67;9.33;;;;;14.32;45.34;102800.66;5094695;27;45515;-75
2022/01/20 11:53:18;;;;;;;;;11.67;7.00;;;;;14.25;45.21;102787.59;5065471;27;45726;-73
2022/01/20 11:55:52;;;;;;;;;7.00;6.33;;;;;14.22;44.48;102795.38;5061689;28;47282;-77
2022/01/20 11:58:22;;;;;;;;;7.67;7.67;;;;;14.22;44.24;102800.91;5070208;27;46012;-77
2022/01/20 12:01:01;;;;;;;;;27.00;23.67;;;;;14.07;45.24;102803.56;5077315;27;45563;-76
2022/01/20 12:03:28;;;;;;;;;6.00;4.33;;;;;13.85;43.88;102800.59;5089007;27;45879;-80
2022/01/20 12:06:08;;;;;;;;;7.33;6.00;;;;;13.62;44.56;102794.16;5091755;27;46914;-76
2022/01/20 12:08:33;;;;;;;;;6.33;4.67;;;;;13.48;44.25;102793.03;5087829;27;45641;-78
2022/01/20 12:11:05;;;;;;;;;3.00;3.00;;;;;13.20;44.37;102797.03;5117058;27;45778;-78
2022/01/20 12:13:31;;;;;;;;;6.33;5.00;;;;;13.01;44.83;102809.28;5087402;27;45542;-79
2022/01/20 12:16:00;;;;;;;;;6.67;6.00;;;;;12.92;45.35;102814.97;5085476;27;47641;-75
2022/01/20 12:18:27;;;;;;;;;3.33;1.00;;;;;12.81;45.85;102808.78;5082464;27;45654;-75
2022/01/20 12:20:53;;;;;;;;;4.67;3.00;;;;;12.72;45.00;102798.81;5090153;27;45611;-74